Aviation Digital Data Service (ADDS)

Output produced by METARs form (1822 UTC 25 March 2019)
found at http://www.aviationweather.gov/metar/data/
 
METAR text: KPHX 251751Z 06005KT 10SM FEW250 24/00 A3011 RMK AO2 SLP182 T02390000 10239 20122 58002
Conditions at: KPHX (PHOENIX/SKY HRBR, AZ, US) observed 1751 UTC 25 March 2019
Temperature: 23.9°C (75°F)
Dewpoint: 0.0°C (32°F) [RH = 21%]
Pressure (altimeter): 30.11 inches Hg (1019.7 mb)
[Sea-level pressure: 1018.2 mb]
Winds: from the ENE (60 degrees) at 6 MPH (5 knots; 2.6 m/s)
Visibility: 10 or more miles (16+ km)
Ceiling: at least 12,000 feet AGL
Clouds: few clouds at 25000 feet AGL
Weather: no significant weather observed at this time

METAR text: KPHX 251651Z 11005KT 10SM FEW250 22/02 A3012 RMK AO2 SLP189 T02170017
Conditions at: KPHX (PHOENIX/SKY HRBR, AZ, US) observed 1651 UTC 25 March 2019
Temperature: 21.7°C (71°F)
Dewpoint: 1.7°C (35°F) [RH = 27%]
Pressure (altimeter): 30.12 inches Hg (1020.1 mb)
[Sea-level pressure: 1018.9 mb]
Winds: from the ESE (110 degrees) at 6 MPH (5 knots; 2.6 m/s)
Visibility: 10 or more miles (16+ km)
Ceiling: at least 12,000 feet AGL
Clouds: few clouds at 25000 feet AGL
Weather: no significant weather observed at this time

METAR text: KPHX 251551Z 11005KT 10SM FEW250 18/03 A3012 RMK AO2 SLP187 T01830033
Conditions at: KPHX (PHOENIX/SKY HRBR, AZ, US) observed 1551 UTC 25 March 2019
Temperature: 18.3°C (65°F)
Dewpoint: 3.3°C (38°F) [RH = 37%]
Pressure (altimeter): 30.12 inches Hg (1020.1 mb)
[Sea-level pressure: 1018.7 mb]
Winds: from the ESE (110 degrees) at 6 MPH (5 knots; 2.6 m/s)
Visibility: 10 or more miles (16+ km)
Ceiling: at least 12,000 feet AGL
Clouds: few clouds at 25000 feet AGL
Weather: no significant weather observed at this time

METAR text: KPHX 251451Z 11004KT 10SM FEW250 15/03 A3011 RMK AO2 SLP187 T01500028 53008
Conditions at: KPHX (PHOENIX/SKY HRBR, AZ, US) observed 1451 UTC 25 March 2019
Temperature: 15.0°C (59°F)
Dewpoint: 2.8°C (37°F) [RH = 44%]
Pressure (altimeter): 30.11 inches Hg (1019.7 mb)
[Sea-level pressure: 1018.7 mb]
Winds: from the ESE (110 degrees) at 5 MPH (4 knots; 2.1 m/s)
Visibility: 10 or more miles (16+ km)
Ceiling: at least 12,000 feet AGL
Clouds: few clouds at 25000 feet AGL
Weather: no significant weather observed at this time

METAR text: KPHX 251351Z 12005KT 10SM FEW250 13/03 A3011 RMK AO2 SLP184 T01330028
Conditions at: KPHX (PHOENIX/SKY HRBR, AZ, US) observed 1351 UTC 25 March 2019
Temperature: 13.3°C (56°F)
Dewpoint: 2.8°C (37°F) [RH = 49%]
Pressure (altimeter): 30.11 inches Hg (1019.7 mb)
[Sea-level pressure: 1018.4 mb]
Winds: from the ESE (120 degrees) at 6 MPH (5 knots; 2.6 m/s)
Visibility: 10 or more miles (16+ km)
Ceiling: at least 12,000 feet AGL
Clouds: few clouds at 25000 feet AGL
Weather: no significant weather observed at this time

METAR text: KPHX 251251Z 00000KT 10SM FEW130 13/03 A3009 RMK AO2 SLP180 T01330028
Conditions at: KPHX (PHOENIX/SKY HRBR, AZ, US) observed 1251 UTC 25 March 2019
Temperature: 13.3°C (56°F)
Dewpoint: 2.8°C (37°F) [RH = 49%]
Pressure (altimeter): 30.09 inches Hg (1019.0 mb)
[Sea-level pressure: 1018.0 mb]
Winds: calm
Visibility: 10 or more miles (16+ km)
Ceiling: at least 12,000 feet AGL
Clouds: few clouds at 13000 feet AGL
Weather: no significant weather observed at this time

METAR text: KPHX 251151Z 00000KT 10SM CLR 14/03 A3009 RMK AO2 SLP178 T01390028 10194 20133 55003
Conditions at: KPHX (PHOENIX/SKY HRBR, AZ, US) observed 1151 UTC 25 March 2019
Temperature: 13.9°C (57°F)
Dewpoint: 2.8°C (37°F) [RH = 47%]
Pressure (altimeter): 30.09 inches Hg (1019.0 mb)
[Sea-level pressure: 1017.8 mb]
Winds: calm
Visibility: 10 or more miles (16+ km)
Ceiling: at least 12,000 feet AGL
Clouds: sky clear below 12,000 feet AGL
Weather: no significant weather observed at this time

METAR text: KPHX 251051Z 12003KT 10SM CLR 14/02 A3009 RMK AO2 SLP177 T01440022
Conditions at: KPHX (PHOENIX/SKY HRBR, AZ, US) observed 1051 UTC 25 March 2019
Temperature: 14.4°C (58°F)
Dewpoint: 2.2°C (36°F) [RH = 44%]
Pressure (altimeter): 30.09 inches Hg (1019.0 mb)
[Sea-level pressure: 1017.7 mb]
Winds: from the ESE (120 degrees) at 3 MPH (3 knots; 1.5 m/s)
Visibility: 10 or more miles (16+ km)
Ceiling: at least 12,000 feet AGL
Clouds: sky clear below 12,000 feet AGL
Weather: no significant weather observed at this time

METAR text: KPHX 250951Z 12004KT 10SM CLR 15/02 A3009 RMK AO2 SLP178 T01500022
Conditions at: KPHX (PHOENIX/SKY HRBR, AZ, US) observed 0951 UTC 25 March 2019
Temperature: 15.0°C (59°F)
Dewpoint: 2.2°C (36°F) [RH = 42%]
Pressure (altimeter): 30.09 inches Hg (1019.0 mb)
[Sea-level pressure: 1017.8 mb]
Winds: from the ESE (120 degrees) at 5 MPH (4 knots; 2.1 m/s)
Visibility: 10 or more miles (16+ km)
Ceiling: at least 12,000 feet AGL
Clouds: sky clear below 12,000 feet AGL
Weather: no significant weather observed at this time

METAR text: KPHX 250851Z 00000KT 10SM CLR 16/03 A3010 RMK AO2 SLP180 T01610028 58006
Conditions at: KPHX (PHOENIX/SKY HRBR, AZ, US) observed 0851 UTC 25 March 2019
Temperature: 16.1°C (61°F)
Dewpoint: 2.8°C (37°F) [RH = 41%]
Pressure (altimeter): 30.10 inches Hg (1019.4 mb)
[Sea-level pressure: 1018.0 mb]
Winds: calm
Visibility: 10 or more miles (16+ km)
Ceiling: at least 12,000 feet AGL
Clouds: sky clear below 12,000 feet AGL
Weather: no significant weather observed at this time

METAR text: KPHX 250751Z 11005KT 10SM CLR 17/02 A3011 RMK AO2 SLP184 T01670017
Conditions at: KPHX (PHOENIX/SKY HRBR, AZ, US) observed 0751 UTC 25 March 2019
Temperature: 16.7°C (62°F)
Dewpoint: 1.7°C (35°F) [RH = 36%]
Pressure (altimeter): 30.11 inches Hg (1019.7 mb)
[Sea-level pressure: 1018.4 mb]
Winds: from the ESE (110 degrees) at 6 MPH (5 knots; 2.6 m/s)
Visibility: 10 or more miles (16+ km)
Ceiling: at least 12,000 feet AGL
Clouds: sky clear below 12,000 feet AGL
Weather: no significant weather observed at this time

METAR text: KPHX 250651Z 10007KT 10SM CLR 17/04 A3011 RMK AO2 SLP186 T01670039 402720117
Conditions at: KPHX (PHOENIX/SKY HRBR, AZ, US) observed 0651 UTC 25 March 2019
Temperature: 16.7°C (62°F)
Dewpoint: 3.9°C (39°F) [RH = 42%]
Pressure (altimeter): 30.11 inches Hg (1019.7 mb)
[Sea-level pressure: 1018.6 mb]
Winds: from the E (100 degrees) at 8 MPH (7 knots; 3.6 m/s)
Visibility: 10 or more miles (16+ km)
Ceiling: at least 12,000 feet AGL
Clouds: sky clear below 12,000 feet AGL
Weather: no significant weather observed at this time

METAR text: KPHX 250551Z 09005KT 10SM CLR 19/02 A3012 RMK AO2 SLP186 T01940022 10261 20189 51010
Conditions at: KPHX (PHOENIX/SKY HRBR, AZ, US) observed 0551 UTC 25 March 2019
Temperature: 19.4°C (67°F)
Dewpoint: 2.2°C (36°F) [RH = 32%]
Pressure (altimeter): 30.12 inches Hg (1020.1 mb)
[Sea-level pressure: 1018.6 mb]
Winds: from the E (90 degrees) at 6 MPH (5 knots; 2.6 m/s)
Visibility: 10 or more miles (16+ km)
Ceiling: at least 12,000 feet AGL
Clouds: sky clear below 12,000 feet AGL
Weather: no significant weather observed at this time

METAR text: KPHX 250451Z 00000KT 10SM FEW250 21/01 A3011 RMK AO2 SLP186 T02060011
Conditions at: KPHX (PHOENIX/SKY HRBR, AZ, US) observed 0451 UTC 25 March 2019
Temperature: 20.6°C (69°F)
Dewpoint: 1.1°C (34°F) [RH = 27%]
Pressure (altimeter): 30.11 inches Hg (1019.7 mb)
[Sea-level pressure: 1018.6 mb]
Winds: calm
Visibility: 10 or more miles (16+ km)
Ceiling: at least 12,000 feet AGL
Clouds: few clouds at 25000 feet AGL
Weather: no significant weather observed at this time

METAR text: KPHX 250351Z 34005KT 10SM FEW250 23/M04 A3010 RMK AO2 SLP182 T02331044
Conditions at: KPHX (PHOENIX/SKY HRBR, AZ, US) observed 0351 UTC 25 March 2019
Temperature: 23.3°C (74°F)
Dewpoint: -4.4°C (24°F) [RH = 15%]
Pressure (altimeter): 30.10 inches Hg (1019.4 mb)
[Sea-level pressure: 1018.2 mb]
Winds: from the NNW (340 degrees) at 6 MPH (5 knots; 2.6 m/s)
Visibility: 10 or more miles (16+ km)
Ceiling: at least 12,000 feet AGL
Clouds: few clouds at 25000 feet AGL
Weather: no significant weather observed at this time

METAR text: KPHX 250251Z 33006KT 10SM SCT250 24/M04 A3008 RMK AO2 SLP176 T02391039 53010
Conditions at: KPHX (PHOENIX/SKY HRBR, AZ, US) observed 0251 UTC 25 March 2019
Temperature: 23.9°C (75°F)
Dewpoint: -3.9°C (25°F) [RH = 15%]
Pressure (altimeter): 30.08 inches Hg (1018.7 mb)
[Sea-level pressure: 1017.6 mb]
Winds: from the NNW (330 degrees) at 7 MPH (6 knots; 3.1 m/s)
Visibility: 10 or more miles (16+ km)
Ceiling: at least 12,000 feet AGL
Clouds: scattered clouds at 25000 feet AGL
Weather: no significant weather observed at this time

METAR text: KPHX 250151Z 31008G15KT 10SM SCT250 25/M03 A3007 RMK AO2 SLP170 T02501028
Conditions at: KPHX (PHOENIX/SKY HRBR, AZ, US) observed 0151 UTC 25 March 2019
Temperature: 25.0°C (77°F)
Dewpoint: -2.8°C (27°F) [RH = 16%]
Pressure (altimeter): 30.07 inches Hg (1018.4 mb)
[Sea-level pressure: 1017.0 mb]
Winds: from the NW (310 degrees) at 9 MPH (8 knots; 4.1 m/s)
gusting to 17 MPH (15 knots; 7.7 m/s)
Visibility: 10 or more miles (16+ km)
Ceiling: at least 12,000 feet AGL
Clouds: scattered clouds at 25000 feet AGL
Weather: no significant weather observed at this time

METAR text: KPHX 250051Z 27004KT 10SM SCT250 26/M01 A3006 RMK AO2 SLP167 T02611011
Conditions at: KPHX (PHOENIX/SKY HRBR, AZ, US) observed 0051 UTC 25 March 2019
Temperature: 26.1°C (79°F)
Dewpoint: -1.1°C (30°F) [RH = 17%]
Pressure (altimeter): 30.06 inches Hg (1018.0 mb)
[Sea-level pressure: 1016.7 mb]
Winds: from the W (270 degrees) at 5 MPH (4 knots; 2.1 m/s)
Visibility: 10 or more miles (16+ km)
Ceiling: at least 12,000 feet AGL
Clouds: scattered clouds at 25000 feet AGL
Weather: no significant weather observed at this time

METAR text: KPHX 242351Z VRB05KT 10SM BKN250 26/M01 A3005 RMK AO2 SLP165 T02611011 10272 20217 56011
Conditions at: KPHX (PHOENIX/SKY HRBR, AZ, US) observed 2351 UTC 24 March 2019
Temperature: 26.1°C (79°F)
Dewpoint: -1.1°C (30°F) [RH = 17%]
Pressure (altimeter): 30.05 inches Hg (1017.7 mb)
[Sea-level pressure: 1016.5 mb]
Winds: variable direction winds at 6 MPH (5 knots; 2.6 m/s)
Visibility: 10 or more miles (16+ km)
Ceiling: 25000 feet AGL
Clouds: broken clouds at 25000 feet AGL
Weather: no significant weather observed at this time

METAR text: KPHX 242251Z 19003KT 10SM BKN250 27/00 A3006 RMK AO2 SLP167 T02720000
Conditions at: KPHX (PHOENIX/SKY HRBR, AZ, US) observed 2251 UTC 24 March 2019
Temperature: 27.2°C (81°F)
Dewpoint: 0.0°C (32°F) [RH = 17%]
Pressure (altimeter): 30.06 inches Hg (1018.0 mb)
[Sea-level pressure: 1016.7 mb]
Winds: from the S (190 degrees) at 3 MPH (3 knots; 1.5 m/s)
Visibility: 10 or more miles (16+ km)
Ceiling: 25000 feet AGL
Clouds: broken clouds at 25000 feet AGL
Weather: no significant weather observed at this time

METAR text: KPHX 242151Z 08004KT 10SM BKN250 26/M01 A3007 RMK AO2 SLP172 T02561011
Conditions at: KPHX (PHOENIX/SKY HRBR, AZ, US) observed 2151 UTC 24 March 2019
Temperature: 25.6°C (78°F)
Dewpoint: -1.1°C (30°F) [RH = 17%]
Pressure (altimeter): 30.07 inches Hg (1018.4 mb)
[Sea-level pressure: 1017.2 mb]
Winds: from the E (80 degrees) at 5 MPH (4 knots; 2.1 m/s)
Visibility: 10 or more miles (16+ km)
Ceiling: 25000 feet AGL
Clouds: broken clouds at 25000 feet AGL
Weather: no significant weather observed at this time

METAR text: KPHX 242051Z 23006KT 10SM BKN250 26/00 A3009 RMK AO2 SLP176 T02560000 58014
Conditions at: KPHX (PHOENIX/SKY HRBR, AZ, US) observed 2051 UTC 24 March 2019
Temperature: 25.6°C (78°F)
Dewpoint: 0.0°C (32°F) [RH = 19%]
Pressure (altimeter): 30.09 inches Hg (1019.0 mb)
[Sea-level pressure: 1017.6 mb]
Winds: from the SW (230 degrees) at 7 MPH (6 knots; 3.1 m/s)
Visibility: 10 or more miles (16+ km)
Ceiling: 25000 feet AGL
Clouds: broken clouds at 25000 feet AGL
Weather: no significant weather observed at this time

METAR text: KPHX 241951Z VRB04KT 10SM BKN250 24/01 A3010 RMK AO2 SLP183 T02390006
Conditions at: KPHX (PHOENIX/SKY HRBR, AZ, US) observed 1951 UTC 24 March 2019
Temperature: 23.9°C (75°F)
Dewpoint: 0.6°C (33°F) [RH = 22%]
Pressure (altimeter): 30.10 inches Hg (1019.4 mb)
[Sea-level pressure: 1018.3 mb]
Winds: variable direction winds at 5 MPH (4 knots; 2.1 m/s)
Visibility: 10 or more miles (16+ km)
Ceiling: 25000 feet AGL
Clouds: broken clouds at 25000 feet AGL
Weather: no significant weather observed at this time

METAR text: KPHX 241851Z 00000KT 10SM BKN250 23/01 A3012 RMK AO2 SLP186 T02330011
Conditions at: KPHX (PHOENIX/SKY HRBR, AZ, US) observed 1851 UTC 24 March 2019
Temperature: 23.3°C (74°F)
Dewpoint: 1.1°C (34°F) [RH = 23%]
Pressure (altimeter): 30.12 inches Hg (1020.1 mb)
[Sea-level pressure: 1018.6 mb]
Winds: calm
Visibility: 10 or more miles (16+ km)
Ceiling: 25000 feet AGL
Clouds: broken clouds at 25000 feet AGL
Weather: no significant weather observed at this time

METAR text: KPHX 241751Z 11003KT 10SM FEW250 22/02 A3013 RMK AO2 SLP190 T02170022 10222 20117 51012
Conditions at: KPHX (PHOENIX/SKY HRBR, AZ, US) observed 1751 UTC 24 March 2019
Temperature: 21.7°C (71°F)
Dewpoint: 2.2°C (36°F) [RH = 28%]
Pressure (altimeter): 30.13 inches Hg (1020.4 mb)
[Sea-level pressure: 1019.0 mb]
Winds: from the ESE (110 degrees) at 3 MPH (3 knots; 1.5 m/s)
Visibility: 10 or more miles (16+ km)
Ceiling: at least 12,000 feet AGL
Clouds: few clouds at 25000 feet AGL
Weather: no significant weather observed at this time

METAR text: KPHX 241651Z 12003KT 10SM CLR 19/04 A3012 RMK AO2 SLP188 T01940039
Conditions at: KPHX (PHOENIX/SKY HRBR, AZ, US) observed 1651 UTC 24 March 2019
Temperature: 19.4°C (67°F)
Dewpoint: 3.9°C (39°F) [RH = 36%]
Pressure (altimeter): 30.12 inches Hg (1020.1 mb)
[Sea-level pressure: 1018.8 mb]
Winds: from the ESE (120 degrees) at 3 MPH (3 knots; 1.5 m/s)
Visibility: 10 or more miles (16+ km)
Ceiling: at least 12,000 feet AGL
Clouds: sky clear below 12,000 feet AGL
Weather: no significant weather observed at this time

METAR text: KPHX 241551Z 09006KT 10SM FEW250 17/04 A3011 RMK AO2 SLP185 T01670044
Conditions at: KPHX (PHOENIX/SKY HRBR, AZ, US) observed 1551 UTC 24 March 2019
Temperature: 16.7°C (62°F)
Dewpoint: 4.4°C (40°F) [RH = 44%]
Pressure (altimeter): 30.11 inches Hg (1019.7 mb)
[Sea-level pressure: 1018.5 mb]
Winds: from the E (90 degrees) at 7 MPH (6 knots; 3.1 m/s)
Visibility: 10 or more miles (16+ km)
Ceiling: at least 12,000 feet AGL
Clouds: few clouds at 25000 feet AGL
Weather: no significant weather observed at this time

METAR text: KPHX 241451Z 09009KT 10SM FEW200 FEW250 14/05 A3009 RMK AO2 SLP180 T01390050 51021
Conditions at: KPHX (PHOENIX/SKY HRBR, AZ, US) observed 1451 UTC 24 March 2019
Temperature: 13.9°C (57°F)
Dewpoint: 5.0°C (41°F) [RH = 55%]
Pressure (altimeter): 30.09 inches Hg (1019.0 mb)
[Sea-level pressure: 1018.0 mb]
Winds: from the E (90 degrees) at 10 MPH (9 knots; 4.6 m/s)
Visibility: 10 or more miles (16+ km)
Ceiling: at least 12,000 feet AGL
Clouds: few clouds at 20000 feet AGL
few clouds at 25000 feet AGL
Weather: no significant weather observed at this time

METAR text: KPHX 241351Z 08008KT 10SM FEW200 SCT250 12/04 A3007 RMK AO2 SLP174 T01220044
Conditions at: KPHX (PHOENIX/SKY HRBR, AZ, US) observed 1351 UTC 24 March 2019
Temperature: 12.2°C (54°F)
Dewpoint: 4.4°C (40°F) [RH = 59%]
Pressure (altimeter): 30.07 inches Hg (1018.4 mb)
[Sea-level pressure: 1017.4 mb]
Winds: from the E (80 degrees) at 9 MPH (8 knots; 4.1 m/s)
Visibility: 10 or more miles (16+ km)
Ceiling: at least 12,000 feet AGL
Clouds: few clouds at 20000 feet AGL
scattered clouds at 25000 feet AGL
Weather: no significant weather observed at this time

METAR text: KPHX 241251Z 08006KT 10SM BKN220 13/05 A3005 RMK AO2 SLP167 T01280050
Conditions at: KPHX (PHOENIX/SKY HRBR, AZ, US) observed 1251 UTC 24 March 2019
Temperature: 12.8°C (55°F)
Dewpoint: 5.0°C (41°F) [RH = 59%]
Pressure (altimeter): 30.05 inches Hg (1017.7 mb)
[Sea-level pressure: 1016.7 mb]
Winds: from the E (80 degrees) at 7 MPH (6 knots; 3.1 m/s)
Visibility: 10 or more miles (16+ km)
Ceiling: 22000 feet AGL
Clouds: broken clouds at 22000 feet AGL
Weather: no significant weather observed at this time

METAR text: KPHX 241151Z 09007KT 10SM FEW220 13/06 A3003 RMK AO2 SLP157 T01330056 10200 20128 51006
Conditions at: KPHX (PHOENIX/SKY HRBR, AZ, US) observed 1151 UTC 24 March 2019
Temperature: 13.3°C (56°F)
Dewpoint: 5.6°C (42°F) [RH = 60%]
Pressure (altimeter): 30.03 inches Hg (1017.0 mb)
[Sea-level pressure: 1015.7 mb]
Winds: from the E (90 degrees) at 8 MPH (7 knots; 3.6 m/s)
Visibility: 10 or more miles (16+ km)
Ceiling: at least 12,000 feet AGL
Clouds: few clouds at 22000 feet AGL
Weather: no significant weather observed at this time

METAR text: KPHX 241051Z 10006KT 10SM FEW220 SCT240 14/06 A3002 RMK AO2 SLP154 T01390056
Conditions at: KPHX (PHOENIX/SKY HRBR, AZ, US) observed 1051 UTC 24 March 2019
Temperature: 13.9°C (57°F)
Dewpoint: 5.6°C (42°F) [RH = 57%]
Pressure (altimeter): 30.02 inches Hg (1016.7 mb)
[Sea-level pressure: 1015.4 mb]
Winds: from the E (100 degrees) at 7 MPH (6 knots; 3.1 m/s)
Visibility: 10 or more miles (16+ km)
Ceiling: at least 12,000 feet AGL
Clouds: few clouds at 22000 feet AGL
scattered clouds at 24000 feet AGL
Weather: no significant weather observed at this time

METAR text: KPHX 240951Z 10005KT 10SM FEW220 FEW250 14/07 A3002 RMK AO2 SLP153 T01440067
Conditions at: KPHX (PHOENIX/SKY HRBR, AZ, US) observed 0951 UTC 24 March 2019
Temperature: 14.4°C (58°F)
Dewpoint: 6.7°C (44°F) [RH = 60%]
Pressure (altimeter): 30.02 inches Hg (1016.7 mb)
[Sea-level pressure: 1015.3 mb]
Winds: from the E (100 degrees) at 6 MPH (5 knots; 2.6 m/s)
Visibility: 10 or more miles (16+ km)
Ceiling: at least 12,000 feet AGL
Clouds: few clouds at 22000 feet AGL
few clouds at 25000 feet AGL
Weather: no significant weather observed at this time

METAR text: KPHX 240851Z 10007KT 10SM FEW250 16/04 A3001 RMK AO2 SLP149 T01610039 53002
Conditions at: KPHX (PHOENIX/SKY HRBR, AZ, US) observed 0851 UTC 24 March 2019
Temperature: 16.1°C (61°F)
Dewpoint: 3.9°C (39°F) [RH = 44%]
Pressure (altimeter): 30.01 inches Hg (1016.3 mb)
[Sea-level pressure: 1014.9 mb]
Winds: from the E (100 degrees) at 8 MPH (7 knots; 3.6 m/s)
Visibility: 10 or more miles (16+ km)
Ceiling: at least 12,000 feet AGL
Clouds: few clouds at 25000 feet AGL
Weather: no significant weather observed at this time

METAR text: KPHX 240751Z 09008KT 10SM FEW250 16/07 A3000 RMK AO2 SLP148 T01560072
Conditions at: KPHX (PHOENIX/SKY HRBR, AZ, US) observed 0751 UTC 24 March 2019
Temperature: 15.6°C (60°F)
Dewpoint: 7.2°C (45°F) [RH = 57%]
Pressure (altimeter): 30.00 inches Hg (1016.0 mb)
[Sea-level pressure: 1014.8 mb]
Winds: from the E (90 degrees) at 9 MPH (8 knots; 4.1 m/s)
Visibility: 10 or more miles (16+ km)
Ceiling: at least 12,000 feet AGL
Clouds: few clouds at 25000 feet AGL
Weather: no significant weather observed at this time

METAR text: KPHX 240651Z 09006KT 10SM SCT250 18/04 A3000 RMK AO2 SLP148 T01780044 402560122
Conditions at: KPHX (PHOENIX/SKY HRBR, AZ, US) observed 0651 UTC 24 March 2019
Temperature: 17.8°C (64°F)
Dewpoint: 4.4°C (40°F) [RH = 41%]
Pressure (altimeter): 30.00 inches Hg (1016.0 mb)
[Sea-level pressure: 1014.8 mb]
Winds: from the E (90 degrees) at 7 MPH (6 knots; 3.1 m/s)
Visibility: 10 or more miles (16+ km)
Ceiling: at least 12,000 feet AGL
Clouds: scattered clouds at 25000 feet AGL
Weather: no significant weather observed at this time

Forecast for: KPHX (PHOENIX/SKY HRBR, AZ, US)
Text: KPHX 251736Z 2518/2624 11005KT P6SM FEW250
Forecast period: 1800 to 2300 UTC 25 March 2019
Forecast type: FROM: standard forecast or significant change
Winds: from the ESE (110 degrees) at 6 MPH (5 knots; 2.6 m/s)
Visibility: 6 or more miles 10+ km)
Ceiling: at least 12,000 feet AGL
Clouds: few clouds at 25000 feet AGL
Weather: no significant weather forecast for this period
Text: FM252300 24005KT P6SM FEW250
Forecast period: 2300 UTC 25 March 2019 to 0800 UTC 26 March 2019
Forecast type: FROM: standard forecast or significant change
Winds: from the WSW (240 degrees) at 6 MPH (5 knots; 2.6 m/s)
Visibility: 6 or more miles 10+ km)
Ceiling: at least 12,000 feet AGL
Clouds: few clouds at 25000 feet AGL
Weather: no significant weather forecast for this period
Text: FM260800 11005KT P6SM FEW200 SCT250
Forecast period: 0800 to 2100 UTC 26 March 2019
Forecast type: FROM: standard forecast or significant change
Winds: from the ESE (110 degrees) at 6 MPH (5 knots; 2.6 m/s)
Visibility: 6 or more miles 10+ km)
Ceiling: at least 12,000 feet AGL
Clouds: few clouds at 20000 feet AGL
scattered clouds at 25000 feet AGL
Weather: no significant weather forecast for this period
Text: FM262100 25005KT P6SM FEW200 SCT250
Forecast period: 2100 UTC 26 March 2019 to 0000 UTC 27 March 2019
Forecast type: FROM: standard forecast or significant change
Winds: from the WSW (250 degrees) at 6 MPH (5 knots; 2.6 m/s)
Visibility: 6 or more miles 10+ km)
Ceiling: at least 12,000 feet AGL
Clouds: few clouds at 20000 feet AGL
scattered clouds at 25000 feet AGL
Weather: no significant weather forecast for this period